UAE75T YBBN-OMDB
Flight info
| Callsign | UAE75T |
|---|---|
| Flight time | N/A |
| Altitude | 28000 |
| Route | WACKO V250 UNVAT DCT 2456S14730E 23S143E/N0506F300 22S141E 21S139E 19S136E 18S134E 17S132E 16S130E DCT SUNPO DCT ONOXA/N0511F320 G326 BLI M766 BKL/N0503F340 M766 KAT P570 TVM V27 RUVAN V28 DOTAT/N0497F360 P570 ITURA M762 VAXAS/N0478F240 M762 MIVEK P574 IMPED |
| Aircraft | B77W/H-SDE1E2E3FGHIJ2J3J4J5M1RWXY/LB1D1 |
Departure
| Time | 2026-05-07 15:45 |
|---|---|
| Airport | Brisbane International Airport (YBBN) |
Arrival
| Time | N/A |
|---|---|
| Airport | Dubai International Airport (OMDB) |
| Time | Latitude | Longitude | Altitude | Speed | Heading |
|---|---|---|---|---|---|
| 2026-05-07 14:48 | -27.40052 | 153.11360 | 27 ft | 0 kts | 298° |
| 2026-05-07 15:31 | -27.40055 | 153.11366 | 27 ft | 2 kts | 297° |
| 2026-05-07 15:32 | -27.40061 | 153.11381 | 27 ft | 2 kts | 297° |
| 2026-05-07 15:32 | -27.40068 | 153.11395 | 27 ft | 2 kts | 297° |
| 2026-05-07 15:32 | -27.40075 | 153.11410 | 27 ft | 2 kts | 302° |
| 2026-05-07 15:32 | -27.40085 | 153.11424 | 27 ft | 2 kts | 324° |
| 2026-05-07 15:33 | -27.40098 | 153.11432 | 27 ft | 2 kts | 342° |
| 2026-05-07 15:33 | -27.40113 | 153.11435 | 27 ft | 2 kts | 360° |
| 2026-05-07 15:33 | -27.40128 | 153.11433 | 27 ft | 2 kts | 17° |
| 2026-05-07 15:33 | -27.40136 | 153.11429 | 27 ft | 0 kts | 28° |
| 2026-05-07 15:34 | -27.40139 | 153.11427 | 27 ft | 0 kts | 28° |
| 2026-05-07 15:35 | -27.40112 | 153.11443 | 27 ft | 8 kts | 26° |
| 2026-05-07 15:36 | -27.40046 | 153.11478 | 27 ft | 13 kts | 25° |
| 2026-05-07 15:36 | -27.39959 | 153.11526 | 27 ft | 13 kts | 27° |
| 2026-05-07 15:36 | -27.39886 | 153.11569 | 27 ft | 10 kts | 30° |
| 2026-05-07 15:36 | -27.39859 | 153.11629 | 27 ft | 8 kts | 99° |
| 2026-05-07 15:37 | -27.39858 | 153.11685 | 27 ft | 7 kts | 64° |
| 2026-05-07 15:37 | -27.39815 | 153.11722 | 27 ft | 8 kts | 28° |
| 2026-05-07 15:37 | -27.39758 | 153.11754 | 27 ft | 9 kts | 26° |
| 2026-05-07 15:37 | -27.39689 | 153.11793 | 27 ft | 12 kts | 28° |
| 2026-05-07 15:38 | -27.39606 | 153.11842 | 27 ft | 14 kts | 27° |
| 2026-05-07 15:38 | -27.39511 | 153.11896 | 27 ft | 16 kts | 27° |
| 2026-05-07 15:38 | -27.39405 | 153.11957 | 27 ft | 17 kts | 27° |
| 2026-05-07 15:38 | -27.39288 | 153.12024 | 27 ft | 19 kts | 26° |
| 2026-05-07 15:39 | -27.39165 | 153.12094 | 27 ft | 20 kts | 27° |
| 2026-05-07 15:39 | -27.39032 | 153.12169 | 27 ft | 21 kts | 27° |
| 2026-05-07 15:39 | -27.38893 | 153.12248 | 27 ft | 22 kts | 26° |
| 2026-05-07 15:39 | -27.38755 | 153.12328 | 27 ft | 21 kts | 27° |
| 2026-05-07 15:40 | -27.38623 | 153.12402 | 27 ft | 20 kts | 26° |
| 2026-05-07 15:40 | -27.38500 | 153.12473 | 27 ft | 19 kts | 26° |
| 2026-05-07 15:40 | -27.38381 | 153.12540 | 27 ft | 18 kts | 27° |
| 2026-05-07 15:40 | -27.38267 | 153.12605 | 27 ft | 17 kts | 27° |
| 2026-05-07 15:41 | -27.38158 | 153.12668 | 27 ft | 17 kts | 27° |
| 2026-05-07 15:41 | -27.38054 | 153.12729 | 27 ft | 16 kts | 28° |
| 2026-05-07 15:41 | -27.37947 | 153.12791 | 27 ft | 17 kts | 27° |
| 2026-05-07 15:41 | -27.37833 | 153.12856 | 27 ft | 18 kts | 27° |
| 2026-05-07 15:42 | -27.37715 | 153.12924 | 27 ft | 19 kts | 27° |
| 2026-05-07 15:42 | -27.37591 | 153.12994 | 27 ft | 20 kts | 27° |
| 2026-05-07 15:42 | -27.37464 | 153.13068 | 27 ft | 19 kts | 27° |
| 2026-05-07 15:42 | -27.37353 | 153.13130 | 27 ft | 15 kts | 27° |
| 2026-05-07 15:43 | -27.37278 | 153.13179 | 27 ft | 10 kts | 47° |
| 2026-05-07 15:43 | -27.37275 | 153.13246 | 27 ft | 8 kts | 120° |
| 2026-05-07 15:43 | -27.37300 | 153.13297 | 27 ft | 7 kts | 118° |
| 2026-05-07 15:43 | -27.37331 | 153.13358 | 27 ft | 10 kts | 121° |
| 2026-05-07 15:44 | -27.37390 | 153.13423 | 27 ft | 12 kts | 152° |
| 2026-05-07 15:44 | -27.37479 | 153.13425 | 27 ft | 14 kts | 204° |
| 2026-05-07 15:44 | -27.37605 | 153.13356 | 27 ft | 36 kts | 207° |
| 2026-05-07 15:44 | -27.38030 | 153.13109 | 27 ft | 98 kts | 207° |
| 2026-05-07 15:45 | -27.38809 | 153.12665 | 27 ft | 152 kts | 207° |
| 2026-05-07 15:45 | -27.39892 | 153.12036 | 80 ft | 193 kts | 210° |
| 2026-05-07 15:45 | -27.41097 | 153.11322 | 662 ft | 198 kts | 209° |
| 2026-05-07 15:45 | -27.42313 | 153.10616 | 1518 ft | 197 kts | 207° |
| 2026-05-07 15:46 | -27.44656 | 153.09283 | 2520 ft | 196 kts | 206° |
| 2026-05-07 15:46 | -27.45869 | 153.08594 | 2980 ft | 195 kts | 206° |
| 2026-05-07 15:46 | -27.47123 | 153.07861 | 3192 ft | 209 kts | 206° |
| 2026-05-07 15:47 | -27.48344 | 153.06856 | 3356 ft | 228 kts | 227° |
| 2026-05-07 15:47 | -27.49161 | 153.05298 | 3703 ft | 240 kts | 249° |
| 2026-05-07 15:47 | -27.49374 | 153.03416 | 4198 ft | 248 kts | 272° |
| 2026-05-07 15:47 | -27.49125 | 153.01498 | 4778 ft | 249 kts | 276° |
| 2026-05-07 15:48 | -27.48830 | 152.99577 | 5335 ft | 250 kts | 277° |
| 2026-05-07 15:48 | -27.48531 | 152.97643 | 5870 ft | 252 kts | 277° |
| 2026-05-07 15:48 | -27.48229 | 152.95694 | 6420 ft | 252 kts | 278° |
| 2026-05-07 15:48 | -27.47922 | 152.93742 | 6856 ft | 257 kts | 280° |
| 2026-05-07 15:49 | -27.47228 | 152.91840 | 7082 ft | 274 kts | 305° |
| 2026-05-07 15:49 | -27.45803 | 152.90369 | 7442 ft | 285 kts | 328° |
| 2026-05-07 15:49 | -27.43986 | 152.89300 | 7763 ft | 297 kts | 332° |
| 2026-05-07 15:49 | -27.42111 | 152.88277 | 8305 ft | 300 kts | 332° |
| 2026-05-07 15:50 | -27.40228 | 152.87253 | 8878 ft | 302 kts | 332° |
| 2026-05-07 15:50 | -27.38326 | 152.86220 | 9433 ft | 304 kts | 332° |
| 2026-05-07 15:50 | -27.36418 | 152.85185 | 10004 ft | 306 kts | 332° |
| 2026-05-07 15:50 | -27.34492 | 152.84140 | 10399 ft | 313 kts | 331° |
| 2026-05-07 15:51 | -27.32480 | 152.83046 | 10574 ft | 329 kts | 332° |
| 2026-05-07 15:51 | -27.30375 | 152.81903 | 10768 ft | 345 kts | 332° |
| 2026-05-07 15:51 | -27.28170 | 152.80708 | 10977 ft | 360 kts | 332° |
| 2026-05-07 15:51 | -27.25844 | 152.79450 | 11212 ft | 375 kts | 332° |
| 2026-05-07 15:52 | -27.23461 | 152.78168 | 11472 ft | 388 kts | 331° |
| 2026-05-07 15:52 | -27.21079 | 152.76630 | 11948 ft | 392 kts | 322° |
| 2026-05-07 15:52 | -27.19015 | 152.74666 | 12524 ft | 393 kts | 311° |
| 2026-05-07 15:52 | -27.17301 | 152.72301 | 13079 ft | 394 kts | 301° |
| 2026-05-07 15:53 | -27.15953 | 152.69606 | 13646 ft | 395 kts | 295° |
| 2026-05-07 15:53 | -27.14721 | 152.66867 | 14265 ft | 397 kts | 295° |
| 2026-05-07 15:53 | -27.13453 | 152.64078 | 14851 ft | 400 kts | 295° |
| 2026-05-07 15:53 | -27.12184 | 152.61313 | 15456 ft | 402 kts | 295° |
| 2026-05-07 15:54 | -27.10890 | 152.58516 | 16052 ft | 404 kts | 295° |
| 2026-05-07 15:54 | -27.09606 | 152.55757 | 16622 ft | 405 kts | 295° |
| 2026-05-07 15:54 | -27.08291 | 152.52943 | 17160 ft | 408 kts | 296° |
| 2026-05-07 15:54 | -27.06965 | 152.50114 | 17706 ft | 409 kts | 296° |
| 2026-05-07 15:55 | -27.05653 | 152.47319 | 18224 ft | 411 kts | 296° |
| 2026-05-07 15:55 | -27.04316 | 152.44482 | 18764 ft | 412 kts | 296° |
| 2026-05-07 15:55 | -27.02978 | 152.41649 | 19376 ft | 411 kts | 296° |
| 2026-05-07 15:55 | -27.01634 | 152.38806 | 19935 ft | 412 kts | 296° |
| 2026-05-07 15:56 | -27.00290 | 152.35965 | 20487 ft | 412 kts | 296° |
| 2026-05-07 15:56 | -26.98959 | 152.33154 | 20972 ft | 414 kts | 296° |
| 2026-05-07 15:56 | -26.97607 | 152.30301 | 21537 ft | 413 kts | 296° |
| 2026-05-07 15:56 | -26.96262 | 152.27464 | 22101 ft | 412 kts | 296° |
| 2026-05-07 15:57 | -26.94932 | 152.24661 | 22589 ft | 412 kts | 296° |
| 2026-05-07 15:57 | -26.93578 | 152.21811 | 23034 ft | 414 kts | 296° |
| 2026-05-07 15:57 | -26.92234 | 152.18982 | 23456 ft | 415 kts | 296° |
| 2026-05-07 15:57 | -26.90871 | 152.16116 | 23878 ft | 417 kts | 296° |
| 2026-05-07 15:58 | -26.89500 | 152.13235 | 24268 ft | 419 kts | 296° |
| 2026-05-07 15:58 | -26.88128 | 152.10355 | 24729 ft | 419 kts | 296° |
| 2026-05-07 15:58 | -26.86774 | 152.07513 | 25193 ft | 420 kts | 296° |
| 2026-05-07 15:58 | -26.85393 | 152.04617 | 25636 ft | 421 kts | 296° |
| 2026-05-07 15:59 | -26.84012 | 152.01723 | 26069 ft | 422 kts | 296° |
| 2026-05-07 15:59 | -26.82625 | 151.98820 | 26501 ft | 423 kts | 296° |
| 2026-05-07 15:59 | -26.81255 | 151.95953 | 26903 ft | 424 kts | 296° |
| 2026-05-07 15:59 | -26.79863 | 151.93042 | 27308 ft | 425 kts | 296° |
| 2026-05-07 16:00 | -26.78466 | 151.90131 | 27746 ft | 425 kts | 296° |
| 2026-05-07 16:00 | -26.77074 | 151.87233 | 28114 ft | 424 kts | 296° |
| 2026-05-07 16:00 | -26.75680 | 151.84332 | 28139 ft | 422 kts | 296° |
| 2026-05-07 16:01 | -26.72912 | 151.78581 | 28136 ft | 419 kts | 296° |
| 2026-05-07 16:01 | -26.70141 | 151.72827 | 28149 ft | 421 kts | 296° |
| 2026-05-07 16:02 | -26.67374 | 151.67091 | 28141 ft | 421 kts | 296° |
| 2026-05-07 16:02 | -26.64603 | 151.61351 | 28144 ft | 420 kts | 296° |
| 2026-05-07 16:03 | -26.61820 | 151.55598 | 28145 ft | 421 kts | 296° |
| 2026-05-07 16:03 | -26.59042 | 151.49861 | 28141 ft | 420 kts | 296° |
| 2026-05-07 16:04 | -26.56262 | 151.44128 | 28150 ft | 421 kts | 296° |
| 2026-05-07 16:04 | -26.53471 | 151.38379 | 28146 ft | 422 kts | 296° |
| 2026-05-07 16:05 | -26.50698 | 151.32674 | 28160 ft | 421 kts | 296° |
| 2026-05-07 16:05 | -26.47905 | 151.26936 | 28171 ft | 421 kts | 296° |
| 2026-05-07 16:06 | -26.45112 | 151.21205 | 28165 ft | 420 kts | 296° |
| 2026-05-07 16:06 | -26.42309 | 151.15460 | 28174 ft | 421 kts | 296° |
| 2026-05-07 16:07 | -26.39535 | 151.09758 | 28171 ft | 421 kts | 296° |
| 2026-05-07 16:07 | -26.36734 | 151.04004 | 28168 ft | 421 kts | 296° |
| 2026-05-07 16:08 | -26.33938 | 150.98270 | 28163 ft | 420 kts | 296° |
| 2026-05-07 16:08 | -26.31162 | 150.92583 | 28166 ft | 422 kts | 296° |
| 2026-05-07 16:09 | -26.28359 | 150.86852 | 28163 ft | 420 kts | 296° |
| 2026-05-07 16:09 | -26.25575 | 150.81161 | 28171 ft | 420 kts | 296° |
| 2026-05-07 16:10 | -26.22788 | 150.75475 | 28171 ft | 420 kts | 296° |
| 2026-05-07 16:10 | -26.19988 | 150.69771 | 28181 ft | 419 kts | 296° |
| 2026-05-07 16:11 | -26.17204 | 150.64105 | 28167 ft | 419 kts | 296° |
| 2026-05-07 16:11 | -26.14398 | 150.58401 | 28167 ft | 420 kts | 296° |
| 2026-05-07 16:12 | -26.11597 | 150.52718 | 28177 ft | 418 kts | 296° |
| 2026-05-07 16:12 | -26.08813 | 150.47073 | 28182 ft | 419 kts | 296° |
| 2026-05-07 16:13 | -26.06006 | 150.41389 | 28170 ft | 417 kts | 296° |
| 2026-05-07 16:13 | -26.03230 | 150.35776 | 28175 ft | 418 kts | 296° |
| 2026-05-07 16:14 | -26.00426 | 150.30113 | 28197 ft | 417 kts | 297° |
| 2026-05-07 16:14 | -25.97621 | 150.24457 | 28203 ft | 416 kts | 296° |
| 2026-05-07 16:15 | -25.94821 | 150.18816 | 28191 ft | 417 kts | 297° |
| 2026-05-07 16:15 | -25.92030 | 150.13200 | 28202 ft | 417 kts | 296° |
| 2026-05-07 16:16 | -25.89222 | 150.07558 | 28212 ft | 417 kts | 296° |
| 2026-05-07 16:16 | -25.86419 | 150.01932 | 28211 ft | 417 kts | 296° |
| 2026-05-07 16:17 | -25.83622 | 149.96326 | 28204 ft | 417 kts | 296° |
| 2026-05-07 16:17 | -25.80808 | 149.90689 | 28202 ft | 418 kts | 296° |
| 2026-05-07 16:18 | -25.78556 | 149.84798 | 28201 ft | 416 kts | 290° |
| 2026-05-07 16:18 | -25.76456 | 149.78821 | 28201 ft | 416 kts | 290° |
| 2026-05-07 16:19 | -25.74342 | 149.72824 | 28204 ft | 416 kts | 290° |
| 2026-05-07 16:19 | -25.72248 | 149.66901 | 28199 ft | 417 kts | 290° |
| 2026-05-07 16:20 | -25.70120 | 149.60893 | 28194 ft | 417 kts | 290° |
| 2026-05-07 16:20 | -25.68008 | 149.54942 | 28198 ft | 417 kts | 290° |
| 2026-05-07 16:21 | -25.65898 | 149.49007 | 28196 ft | 416 kts | 290° |
| 2026-05-07 16:21 | -25.63769 | 149.43025 | 28192 ft | 416 kts | 290° |
| 2026-05-07 16:22 | -25.61656 | 149.37097 | 28190 ft | 417 kts | 290° |
| 2026-05-07 16:22 | -25.59522 | 149.31123 | 28209 ft | 417 kts | 291° |
| 2026-05-07 16:23 | -25.57399 | 149.25185 | 28212 ft | 417 kts | 291° |
| 2026-05-07 16:23 | -25.55261 | 149.19215 | 28207 ft | 416 kts | 290° |
| 2026-05-07 16:24 | -25.53133 | 149.13283 | 28210 ft | 417 kts | 291° |
| 2026-05-07 16:24 | -25.51002 | 149.07350 | 28205 ft | 416 kts | 291° |
| 2026-05-07 16:25 | -25.48860 | 149.01398 | 28205 ft | 417 kts | 290° |
| 2026-05-07 16:25 | -25.46723 | 148.95464 | 28200 ft | 417 kts | 291° |
| 2026-05-07 16:26 | -25.44562 | 148.89475 | 28200 ft | 417 kts | 290° |
| 2026-05-07 16:26 | -25.42429 | 148.83571 | 28206 ft | 417 kts | 291° |
| 2026-05-07 16:27 | -25.40270 | 148.77605 | 28204 ft | 418 kts | 291° |
| 2026-05-07 16:27 | -25.38104 | 148.71629 | 28208 ft | 418 kts | 291° |
| 2026-05-07 16:28 | -25.35941 | 148.65666 | 28207 ft | 418 kts | 291° |
| 2026-05-07 16:28 | -25.33780 | 148.59723 | 28205 ft | 419 kts | 291° |
| 2026-05-07 16:29 | -25.31605 | 148.53748 | 28203 ft | 418 kts | 291° |
| 2026-05-07 16:29 | -25.29439 | 148.47806 | 28209 ft | 419 kts | 291° |
| 2026-05-07 16:30 | -25.27253 | 148.41818 | 28206 ft | 420 kts | 291° |
| 2026-05-07 16:30 | -25.25072 | 148.35851 | 28211 ft | 420 kts | 291° |
| 2026-05-07 16:31 | -25.22892 | 148.29898 | 28227 ft | 420 kts | 291° |
| 2026-05-07 16:31 | -25.20691 | 148.23894 | 28229 ft | 420 kts | 291° |
| 2026-05-07 16:32 | -25.18508 | 148.17949 | 28234 ft | 420 kts | 291° |
| 2026-05-07 16:32 | -25.16304 | 148.11955 | 28232 ft | 421 kts | 291° |
| 2026-05-07 16:33 | -25.14112 | 148.06003 | 28230 ft | 422 kts | 291° |
| 2026-05-07 16:33 | -25.11894 | 147.99989 | 28236 ft | 422 kts | 291° |
| 2026-05-07 16:34 | -25.09695 | 147.94034 | 28233 ft | 421 kts | 291° |
| 2026-05-07 16:34 | -25.07478 | 147.88042 | 28233 ft | 423 kts | 291° |
| 2026-05-07 16:35 | -25.05250 | 147.82025 | 28227 ft | 421 kts | 291° |
| 2026-05-07 16:35 | -25.03035 | 147.76054 | 28227 ft | 423 kts | 291° |
| 2026-05-07 16:36 | -25.00813 | 147.70073 | 28220 ft | 422 kts | 291° |
| 2026-05-07 16:36 | -24.98586 | 147.64085 | 28218 ft | 423 kts | 292° |
| 2026-05-07 16:37 | -24.96358 | 147.58107 | 28207 ft | 423 kts | 292° |
| 2026-05-07 16:37 | -24.94118 | 147.52101 | 28212 ft | 423 kts | 292° |
| 2026-05-07 16:38 | -24.91806 | 147.46166 | 28212 ft | 423 kts | 293° |
| 2026-05-07 16:38 | -24.89378 | 147.40280 | 28205 ft | 424 kts | 294° |
| 2026-05-07 16:39 | -24.86941 | 147.34358 | 28211 ft | 423 kts | 294° |
| 2026-05-07 16:39 | -24.84522 | 147.28476 | 28210 ft | 424 kts | 294° |
| 2026-05-07 16:40 | -24.82092 | 147.22566 | 28217 ft | 423 kts | 294° |
| 2026-05-07 16:40 | -24.79673 | 147.16690 | 28211 ft | 423 kts | 294° |
| 2026-05-07 16:41 | -24.77246 | 147.10800 | 28200 ft | 424 kts | 294° |
| 2026-05-07 16:41 | -24.74814 | 147.04904 | 28203 ft | 423 kts | 294° |
| 2026-05-07 16:42 | -24.72386 | 146.99026 | 28197 ft | 423 kts | 294° |
| 2026-05-07 16:42 | -24.69958 | 146.93156 | 28192 ft | 423 kts | 294° |
| 2026-05-07 16:43 | -24.67518 | 146.87267 | 28194 ft | 424 kts | 294° |
| 2026-05-07 16:43 | -24.65074 | 146.81374 | 28196 ft | 423 kts | 294° |
| 2026-05-07 16:44 | -24.62632 | 146.75493 | 28186 ft | 423 kts | 294° |
| 2026-05-07 16:44 | -24.60196 | 146.69635 | 28184 ft | 423 kts | 294° |
| 2026-05-07 16:45 | -24.57761 | 146.63786 | 28177 ft | 422 kts | 294° |
| 2026-05-07 16:45 | -24.55308 | 146.57903 | 28185 ft | 424 kts | 294° |
| 2026-05-07 16:46 | -24.52856 | 146.52031 | 28285 ft | 430 kts | 294° |
| 2026-05-07 16:46 | -24.51603 | 146.49033 | 28763 ft | 428 kts | 294° |
| 2026-05-07 16:46 | -24.50385 | 146.46118 | 29524 ft | 420 kts | 294° |
| 2026-05-07 16:46 | -24.49171 | 146.43218 | 30056 ft | 416 kts | 294° |
| 2026-05-07 16:47 | -24.47974 | 146.40359 | 30162 ft | 415 kts | 294° |
| 2026-05-07 16:47 | -24.45588 | 146.34666 | 30169 ft | 410 kts | 294° |
| 2026-05-07 16:48 | -24.43187 | 146.28944 | 30190 ft | 412 kts | 294° |
| 2026-05-07 16:48 | -24.40797 | 146.23257 | 30192 ft | 410 kts | 294° |
| 2026-05-07 16:49 | -24.38418 | 146.17604 | 30187 ft | 411 kts | 294° |
| 2026-05-07 16:49 | -24.36032 | 146.11938 | 30180 ft | 410 kts | 294° |
| 2026-05-07 16:50 | -24.33627 | 146.06236 | 30174 ft | 411 kts | 294° |
| 2026-05-07 16:50 | -24.31245 | 146.00595 | 30175 ft | 410 kts | 294° |
| 2026-05-07 16:51 | -24.28855 | 145.94945 | 30175 ft | 410 kts | 294° |
| 2026-05-07 16:51 | -24.26437 | 145.89232 | 30179 ft | 411 kts | 294° |
| 2026-05-07 16:52 | -24.24039 | 145.83574 | 30171 ft | 410 kts | 294° |
| 2026-05-07 16:52 | -24.21646 | 145.77937 | 30168 ft | 411 kts | 294° |
| 2026-05-07 16:53 | -24.19238 | 145.72270 | 30170 ft | 411 kts | 294° |
| 2026-05-07 16:53 | -24.16818 | 145.66585 | 30166 ft | 411 kts | 294° |
| 2026-05-07 16:54 | -24.14411 | 145.60933 | 30162 ft | 411 kts | 294° |
| 2026-05-07 16:54 | -24.11992 | 145.55263 | 30165 ft | 411 kts | 294° |
| 2026-05-07 16:55 | -24.09585 | 145.49626 | 30167 ft | 411 kts | 294° |
| 2026-05-07 16:55 | -24.07162 | 145.43959 | 30167 ft | 412 kts | 295° |
| 2026-05-07 16:56 | -24.04728 | 145.38275 | 30162 ft | 412 kts | 294° |
| 2026-05-07 16:56 | -24.01082 | 145.29771 | 30185 ft | 413 kts | 295° |
| 2026-05-07 16:57 | -23.98645 | 145.24098 | 30180 ft | 413 kts | 295° |
| 2026-05-07 16:57 | -23.96217 | 145.18451 | 30180 ft | 412 kts | 295° |
| 2026-05-07 16:58 | -23.93775 | 145.12779 | 30178 ft | 413 kts | 295° |
| 2026-05-07 16:58 | -23.91338 | 145.07126 | 30178 ft | 413 kts | 295° |
| 2026-05-07 16:59 | -23.88890 | 145.01453 | 30186 ft | 414 kts | 295° |
| 2026-05-07 16:59 | -23.86429 | 144.95758 | 30182 ft | 414 kts | 295° |
| 2026-05-07 17:00 | -23.83975 | 144.90086 | 30182 ft | 414 kts | 295° |
| 2026-05-07 17:00 | -23.81527 | 144.84435 | 30181 ft | 414 kts | 295° |
| 2026-05-07 17:01 | -23.79066 | 144.78760 | 30178 ft | 413 kts | 295° |
| 2026-05-07 17:01 | -23.76605 | 144.73093 | 30178 ft | 413 kts | 295° |
| 2026-05-07 17:02 | -23.74157 | 144.67462 | 30167 ft | 413 kts | 295° |
| 2026-05-07 17:02 | -23.71696 | 144.61809 | 30169 ft | 413 kts | 295° |
| 2026-05-07 17:03 | -23.69232 | 144.56155 | 30169 ft | 413 kts | 295° |
| 2026-05-07 17:03 | -23.66760 | 144.50490 | 30164 ft | 413 kts | 295° |
| 2026-05-07 17:04 | -23.64298 | 144.44853 | 30164 ft | 413 kts | 295° |
| 2026-05-07 17:04 | -23.61822 | 144.39192 | 30161 ft | 413 kts | 295° |
| 2026-05-07 17:05 | -23.59355 | 144.33560 | 30175 ft | 413 kts | 295° |
| 2026-05-07 17:05 | -23.56871 | 144.27893 | 30173 ft | 413 kts | 295° |
| 2026-05-07 17:06 | -23.54391 | 144.22246 | 30170 ft | 413 kts | 295° |
| 2026-05-07 17:06 | -23.51926 | 144.16635 | 30172 ft | 413 kts | 295° |
| 2026-05-07 17:07 | -23.49443 | 144.10992 | 30170 ft | 413 kts | 296° |
| 2026-05-07 17:07 | -23.46958 | 144.05354 | 30167 ft | 413 kts | 295° |
| 2026-05-07 17:08 | -23.44476 | 143.99725 | 30167 ft | 413 kts | 295° |
| 2026-05-07 17:08 | -23.42001 | 143.94121 | 30163 ft | 412 kts | 296° |
| 2026-05-07 17:09 | -23.39517 | 143.88503 | 30153 ft | 413 kts | 296° |
| 2026-05-07 17:09 | -23.37019 | 143.82858 | 30161 ft | 412 kts | 296° |
| 2026-05-07 17:10 | -23.34529 | 143.77241 | 30163 ft | 414 kts | 296° |
| 2026-05-07 17:10 | -23.32030 | 143.71608 | 30159 ft | 413 kts | 296° |
| 2026-05-07 17:11 | -23.29545 | 143.66014 | 30157 ft | 413 kts | 296° |
| 2026-05-07 17:11 | -23.27035 | 143.60371 | 30157 ft | 413 kts | 296° |
| 2026-05-07 17:12 | -23.24540 | 143.54767 | 30157 ft | 413 kts | 296° |
| 2026-05-07 17:12 | -23.22044 | 143.49170 | 30155 ft | 414 kts | 296° |
| 2026-05-07 17:13 | -23.19524 | 143.43523 | 30154 ft | 413 kts | 296° |
| 2026-05-07 17:13 | -23.17030 | 143.37941 | 30153 ft | 414 kts | 296° |
| 2026-05-07 17:14 | -23.14510 | 143.32307 | 30171 ft | 414 kts | 296° |
| 2026-05-07 17:14 | -23.11991 | 143.26683 | 30171 ft | 414 kts | 296° |
| 2026-05-07 17:15 | -23.09475 | 143.21072 | 30169 ft | 414 kts | 296° |
| 2026-05-07 17:15 | -23.06971 | 143.15494 | 30174 ft | 414 kts | 296° |
| 2026-05-07 17:16 | -23.04438 | 143.09859 | 30168 ft | 414 kts | 296° |
| 2026-05-07 17:16 | -23.01931 | 143.04286 | 30169 ft | 414 kts | 296° |
| 2026-05-07 17:17 | -22.99399 | 142.98695 | 30166 ft | 414 kts | 297° |
| 2026-05-07 17:17 | -22.96682 | 142.93179 | 30161 ft | 414 kts | 298° |
| 2026-05-07 17:18 | -22.93966 | 142.87679 | 30159 ft | 414 kts | 298° |
| 2026-05-07 17:18 | -22.91260 | 142.82190 | 30161 ft | 415 kts | 297° |
| 2026-05-07 17:19 | -22.88551 | 142.76692 | 30157 ft | 415 kts | 298° |
| 2026-05-07 17:19 | -22.85841 | 142.71196 | 30159 ft | 415 kts | 298° |
| 2026-05-07 17:20 | -22.83109 | 142.65659 | 30152 ft | 415 kts | 297° |
| 2026-05-07 17:20 | -22.80400 | 142.60175 | 30155 ft | 415 kts | 298° |
| 2026-05-07 17:21 | -22.77686 | 142.54686 | 30156 ft | 415 kts | 297° |
| 2026-05-07 17:21 | -22.74957 | 142.49170 | 30145 ft | 415 kts | 298° |
| 2026-05-07 17:22 | -22.72219 | 142.43645 | 30149 ft | 415 kts | 298° |